Time;durP1;ratioP1;P1;durP2;ratioP2;P2;SDS_P1;SDS_P2;PMS_P1;PMS_P2;Temp;Humidity;BMP_temperature;BMP_pressure;BME280_temperature;BME280_humidity;BME280_pressure;Samples;Min_cycle;Max_cycle;Signal;HPM_P1;HPM_P2
2021/08/27 00:02:16;;;;;;;2.83;2.63;;;21.70;32.80;;;;;;5053327;28;20176;-68
2021/08/27 00:04:42;;;;;;;3.10;2.73;;;21.70;32.80;;;;;;5052735;28;20184;-68
2021/08/27 00:07:07;;;;;;;2.70;2.50;;;21.70;32.90;;;;;;5053272;28;20168;-68
2021/08/27 00:09:51;;;;;;;3.10;2.77;;;21.70;32.90;;;;;;5053109;28;20222;-68
2021/08/27 00:12:18;;;;;;;2.90;2.70;;;21.70;32.90;;;;;;5052935;28;20196;-68
2021/08/27 00:14:44;;;;;;;3.17;2.97;;;21.70;33.00;;;;;;5052878;28;20905;-68
2021/08/27 00:17:09;;;;;;;3.20;2.90;;;21.70;33.00;;;;;;5052867;28;20417;-68
2021/08/27 00:19:35;;;;;;;3.07;2.87;;;21.70;33.00;;;;;;5052686;28;20246;-68
2021/08/27 00:25:23;;;;;;;3.07;2.87;;;21.70;32.90;;;;;;5052734;28;20175;-68
2021/08/27 00:27:48;;;;;;;5.80;3.37;;;21.70;33.10;;;;;;5052424;28;20422;-68
2021/08/27 00:30:14;;;;;;;2.90;2.70;;;21.70;33.00;;;;;;5053010;28;20778;-68
2021/08/27 00:32:40;;;;;;;3.00;2.80;;;21.60;32.90;;;;;;5052791;28;20206;-68
2021/08/27 00:35:06;;;;;;;2.87;2.67;;;21.70;33.00;;;;;;5052251;28;20681;-68
2021/08/27 00:37:32;;;;;;;3.10;2.90;;;21.60;32.90;;;;;;5052581;28;20164;-68
2021/08/27 00:39:58;;;;;;;2.63;2.47;;;21.60;33.00;;;;;;5052460;28;20894;-68
2021/08/27 00:43:01;;;;;;;2.50;2.30;;;21.70;33.10;;;;;;5052245;28;20421;-68
2021/08/27 00:45:26;;;;;;;2.83;2.63;;;21.60;33.10;;;;;;5052463;28;20171;-68
2021/08/27 00:47:52;;;;;;;3.30;2.97;;;21.60;33.00;;;;;;5052503;28;20430;-68
2021/08/27 00:50:17;;;;;;;3.77;3.00;;;21.70;33.20;;;;;;5052269;28;20180;-68
2021/08/27 00:52:43;;;;;;;3.13;2.93;;;21.60;33.10;;;;;;5052269;28;20199;-68
2021/08/27 00:55:09;;;;;;;4.73;2.90;;;21.60;33.10;;;;;;5052231;28;20179;-68
2021/08/27 00:57:36;;;;;;;4.20;3.17;;;21.60;33.10;;;;;;5051435;28;20203;-68
2021/08/27 01:00:04;;;;;;;2.60;2.40;;;21.60;33.10;;;;;;5052330;28;20415;-68
2021/08/27 01:02:29;;;;;;;3.07;2.67;;;21.60;33.20;;;;;;5052282;28;20407;-68
2021/08/27 01:04:57;;;;;;;3.00;2.80;;;21.60;33.30;;;;;;5051714;28;20419;-68
2021/08/27 01:08:01;;;;;;;2.67;2.47;;;21.60;33.20;;;;;;5052249;28;20200;-68
2021/08/27 01:10:31;;;;;;;3.37;2.47;;;21.60;33.20;;;;;;5052138;28;20421;-68
2021/08/27 01:16:29;;;;;;;2.97;2.73;;;21.60;33.30;;;;;;5052130;28;20382;-68
2021/08/27 01:19:38;;;;;;;2.53;2.40;;;21.60;33.20;;;;;;5051614;28;20521;-68
2021/08/27 01:22:19;;;;;;;3.00;2.80;;;21.60;33.40;;;;;;5051889;28;20406;-68
2021/08/27 01:24:47;;;;;;;2.70;2.50;;;21.60;33.40;;;;;;5051970;28;20445;-68
2021/08/27 01:27:16;;;;;;;3.27;2.73;;;21.60;33.30;;;;;;5051572;28;20402;-68
2021/08/27 01:29:56;;;;;;;2.63;2.40;;;21.60;33.40;;;;;;5051707;28;20484;-68
2021/08/27 01:32:33;;;;;;;2.80;2.60;;;21.60;33.40;;;;;;5051733;28;20827;-68
2021/08/27 01:35:00;;;;;;;2.73;2.53;;;21.60;33.50;;;;;;5051375;28;20751;-68
2021/08/27 01:37:27;;;;;;;2.63;2.43;;;21.60;33.50;;;;;;5051872;28;20433;-68
2021/08/27 01:39:56;;;;;;;2.77;2.57;;;21.60;33.40;;;;;;5051742;28;20901;-68
2021/08/27 01:42:26;;;;;;;2.70;2.33;;;21.60;33.40;;;;;;5051333;28;20465;-68
2021/08/27 01:45:16;;;;;;;2.50;2.30;;;21.60;33.40;;;;;;5051443;28;20822;-68
2021/08/27 01:47:43;;;;;;;2.83;2.30;;;21.60;33.50;;;;;;5051243;28;20441;-68
2021/08/27 01:50:10;;;;;;;2.93;2.67;;;21.60;33.40;;;;;;5051666;28;20442;-68
2021/08/27 01:52:37;;;;;;;2.53;2.33;;;21.60;33.50;;;;;;5051519;28;20488;-68
2021/08/27 01:55:04;;;;;;;4.37;2.50;;;21.60;33.40;;;;;;5051204;28;20501;-68
2021/08/27 01:57:30;;;;;;;2.60;2.40;;;21.60;33.40;;;;;;5051286;28;20430;-68
2021/08/27 01:59:56;;;;;;;2.67;2.47;;;21.60;33.50;;;;;;5051601;28;20897;-68
2021/08/27 02:02:22;;;;;;;2.93;2.57;;;21.60;33.50;;;;;;5051717;28;20419;-68
2021/08/27 02:04:51;;;;;;;2.90;2.70;;;21.60;33.60;;;;;;5051131;28;20172;-68
2021/08/27 02:07:17;;;;;;;2.80;2.60;;;21.60;33.60;;;;;;5051490;28;20418;-68
2021/08/27 02:09:44;;;;;;;3.13;2.83;;;21.60;33.60;;;;;;5053196;28;20936;-68
2021/08/27 02:12:10;;;;;;;2.60;2.40;;;21.60;33.70;;;;;;5055199;28;20523;-68
2021/08/27 02:14:38;;;;;;;4.10;2.87;;;21.60;33.70;;;;;;5055354;28;20816;-68
2021/08/27 02:17:08;;;;;;;2.90;2.70;;;21.60;33.60;;;;;;5055411;28;20168;-68
2021/08/27 02:19:36;;;;;;;3.10;2.80;;;21.60;33.70;;;;;;5054919;28;20422;-68
2021/08/27 02:22:03;;;;;;;2.50;2.30;;;21.60;34.40;;;;;;5055157;28;20452;-68
2021/08/27 02:24:35;;;;;;;3.47;2.67;;;21.60;33.70;;;;;;5055132;28;20488;-68
2021/08/27 02:27:03;;;;;;;2.83;2.63;;;21.60;33.70;;;;;;5055003;28;20406;-68
2021/08/27 02:29:33;;;;;;;2.40;2.30;;;21.60;33.70;;;;;;5055021;28;20777;-68
2021/08/27 02:32:02;;;;;;;2.87;2.67;;;21.50;33.60;;;;;;5054956;28;20434;-68
2021/08/27 02:34:29;;;;;;;2.70;2.33;;;21.60;33.70;;;;;;5054870;28;20403;-68
2021/08/27 02:36:57;;;;;;;2.90;2.70;;;21.50;33.60;;;;;;5054874;28;20411;-68
2021/08/27 02:39:27;;;;;;;2.97;2.77;;;21.60;33.70;;;;;;5054808;28;20430;-68
2021/08/27 02:41:52;;;;;;;4.43;2.23;;;21.50;33.60;;;;;;5054827;28;20407;-68
2021/08/27 02:44:18;;;;;;;3.13;2.80;;;21.50;33.70;;;;;;5054924;28;20433;-68
2021/08/27 02:46:44;;;;;;;3.07;2.77;;;21.50;33.70;;;;;;5054540;28;20661;-68
2021/08/27 02:49:10;;;;;;;2.73;2.53;;;21.50;33.70;;;;;;5054340;28;20271;-68
2021/08/27 02:51:42;;;;;;;3.20;2.90;;;21.50;33.70;;;;;;5054751;28;20176;-68
2021/08/27 02:54:10;;;;;;;2.50;2.33;;;21.50;33.70;;;;;;5054586;28;20208;-68
2021/08/27 02:56:39;;;;;;;3.53;3.23;;;21.50;34.00;;;;;;5054342;28;20407;-68
2021/08/27 02:59:11;;;;;;;2.07;1.97;;;21.50;33.70;;;;;;5054461;28;20921;-68
2021/08/27 03:01:40;;;;;;;2.67;2.47;;;21.50;33.80;;;;;;5054314;28;20468;-68
2021/08/27 03:04:24;;;;;;;2.30;2.20;;;21.50;33.70;;;;;;5054654;28;20414;-68
2021/08/27 03:06:56;;;;;;;2.97;2.50;;;21.50;33.80;;;;;;5054381;28;20417;-68
2021/08/27 03:09:24;;;;;;;2.83;2.63;;;21.50;33.80;;;;;;5054063;28;20572;-68
2021/08/27 03:11:58;;;;;;;2.80;2.60;;;21.50;33.80;;;;;;5054269;28;20781;-68
2021/08/27 03:14:40;;;;;;;3.20;2.80;;;21.50;33.90;;;;;;5054190;28;21020;-68
2021/08/27 03:17:14;;;;;;;3.40;3.10;;;21.50;33.90;;;;;;5054030;28;20757;-68
2021/08/27 03:19:48;;;;;;;2.90;2.70;;;21.50;33.90;;;;;;5054117;28;20621;-68
2021/08/27 03:22:21;;;;;;;2.87;2.67;;;21.50;34.00;;;;;;5054148;28;20418;-68
2021/08/27 03:24:56;;;;;;;2.93;2.73;;;21.50;34.00;;;;;;5053616;28;20476;-68
2021/08/27 03:27:27;;;;;;;3.10;2.90;;;21.50;34.00;;;;;;5053312;28;20438;-68
2021/08/27 03:29:59;;;;;;;2.80;2.60;;;21.50;34.00;;;;;;5053833;28;20753;-67
2021/08/27 03:32:25;;;;;;;3.43;3.13;;;21.50;34.10;;;;;;5053623;28;21038;-68
2021/08/27 03:34:52;;;;;;;2.80;2.60;;;21.50;34.00;;;;;;5053706;28;20901;-68
2021/08/27 03:37:19;;;;;;;3.23;3.03;;;21.50;34.10;;;;;;5053810;28;20406;-68
2021/08/27 03:39:44;;;;;;;3.20;2.83;;;21.50;34.00;;;;;;5053371;28;20868;-67
2021/08/27 03:42:13;;;;;;;3.00;2.80;;;21.50;34.10;;;;;;5053695;28;20418;-68
2021/08/27 03:44:40;;;;;;;2.80;2.70;;;21.50;34.00;;;;;;5053467;28;20180;-68
2021/08/27 03:47:07;;;;;;;3.00;2.80;;;21.50;34.10;;;;;;5053523;28;20418;-68
2021/08/27 03:49:36;;;;;;;2.87;2.57;;;21.50;34.10;;;;;;5053499;28;20434;-68
2021/08/27 03:52:01;;;;;;;5.37;2.80;;;21.50;34.20;;;;;;5053349;28;20490;-68
2021/08/27 03:54:27;;;;;;;3.10;2.90;;;21.50;34.20;;;;;;5053178;28;20502;-68
2021/08/27 03:56:54;;;;;;;3.37;2.73;;;21.50;34.20;;;;;;5053243;28;20184;-67
2021/08/27 03:59:22;;;;;;;2.43;2.33;;;21.50;34.20;;;;;;5052963;28;20473;-70
2021/08/27 04:02:03;;;;;;;2.90;2.70;;;21.50;34.40;;;;;;5052555;28;20830;-70
2021/08/27 04:05:06;;;;;;;3.60;2.80;;;21.50;34.40;;;;;;5053543;28;20410;-69
2021/08/27 04:08:09;;;;;;;2.83;2.63;;;21.50;34.40;;;;;;5053025;28;20939;-70
2021/08/27 04:10:35;;;;;;;4.90;2.67;;;21.50;34.40;;;;;;5052777;28;20410;-70
2021/08/27 04:13:00;;;;;;;2.70;2.50;;;21.50;34.50;;;;;;5052920;28;20469;-69
2021/08/27 04:16:06;;;;;;;3.27;2.97;;;21.50;34.60;;;;;;5052940;28;20281;-69
2021/08/27 04:18:32;;;;;;;3.07;2.87;;;21.50;34.60;;;;;;5052582;28;20188;-66
2021/08/27 04:20:59;;;;;;;2.50;2.30;;;21.50;34.60;;;;;;5051895;28;20464;-68
2021/08/27 04:23:25;;;;;;;2.60;2.40;;;21.50;34.70;;;;;;5052689;28;20187;-68
2021/08/27 04:25:51;;;;;;;3.50;3.20;;;21.50;35.00;;;;;;5052828;28;20414;-67
2021/08/27 04:28:41;;;;;;;2.70;2.50;;;21.50;35.20;;;;;;5052740;28;20226;-73
2021/08/27 04:31:16;;;;;;;4.17;3.10;;;21.50;35.10;;;;;;5050434;28;20893;-68
2021/08/27 04:37:50;;;;;;;3.63;2.90;;;21.50;35.10;;;;;;5051428;28;20425;-71
2021/08/27 04:40:16;;;;;;;3.13;2.80;;;21.50;35.20;;;;;;5052003;28;20497;-68
2021/08/27 04:46:11;;;;;;;2.83;2.63;;;21.50;35.30;;;;;;5010983;28;20169;-68
2021/08/27 04:48:37;;;;;;;3.30;3.00;;;21.50;35.40;;;;;;5009429;28;20808;-68
2021/08/27 04:51:03;;;;;;;2.80;2.70;;;21.50;35.40;;;;;;5008747;28;21224;-68
2021/08/27 04:54:25;;;;;;;3.40;2.80;;;21.50;35.40;;;;;;5007270;28;20463;-68
2021/08/27 05:00:08;;;;;;;3.00;2.70;;;21.50;35.50;;;;;;5370675;22;20543;-69
2021/08/27 05:03:11;;;;;;;3.53;3.20;;;21.50;35.90;;;;;;6085838;23;20418;-70
2021/08/27 05:05:37;;;;;;;3.87;3.30;;;21.50;35.60;;;;;;6106438;23;20421;-68
2021/08/27 05:08:03;;;;;;;6.13;3.10;;;21.40;35.40;;;;;;6118445;23;20443;-68
2021/08/27 05:10:29;;;;;;;4.67;3.20;;;21.50;35.40;;;;;;6093237;23;20413;-65
2021/08/27 05:12:54;;;;;;;14.47;13.23;;;21.50;35.80;;;;;;6090620;23;20191;-69
2021/08/27 05:15:20;;;;;;;5.37;4.97;;;21.50;35.90;;;;;;6091136;23;20163;-69
2021/08/27 05:17:45;;;;;;;25.20;23.23;;;21.50;35.80;;;;;;6091728;23;20170;-68
2021/08/27 05:20:11;;;;;;;24.80;22.93;;;21.50;35.90;;;;;;6091436;23;20698;-69
2021/08/27 05:22:37;;;;;;;26.50;24.60;;;21.50;36.00;;;;;;6091249;23;20174;-69
2021/08/27 05:25:03;;;;;;;32.77;30.20;;;21.50;36.40;;;;;;6091394;23;20393;-66
2021/08/27 05:27:28;;;;;;;24.63;22.70;;;21.50;36.80;;;;;;6091639;23;20171;-66
2021/08/27 05:29:54;;;;;;;23.70;21.80;;;21.50;37.70;;;;;;6090916;23;20421;-67
2021/08/27 05:32:20;;;;;;;21.80;19.60;;;21.50;38.20;;;;;;6091473;23;20224;-69
2021/08/27 05:34:45;;;;;;;18.60;17.13;;;21.50;37.90;;;;;;6065898;23;20652;-67
2021/08/27 05:37:11;;;;;;;18.73;17.00;;;21.50;37.30;;;;;;6090834;23;20159;-66
2021/08/27 05:46:21;;;;;;;16.20;15.00;;;21.60;37.70;;;;;;6090343;23;20420;-69
2021/08/27 05:48:46;;;;;;;15.90;14.70;;;21.60;37.10;;;;;;6091135;23;20413;-66
2021/08/27 05:51:12;;;;;;;14.73;13.53;;;21.60;37.10;;;;;;6091615;23;20159;-67
2021/08/27 05:53:37;;;;;;;15.07;13.90;;;21.60;36.70;;;;;;6090864;23;20178;-68
2021/08/27 05:56:03;;;;;;;15.93;14.70;;;21.60;36.50;;;;;;6091198;23;20535;-67
2021/08/27 05:59:04;;;;;;;13.17;11.97;;;21.60;36.50;;;;;;6065326;23;20205;-67
2021/08/27 06:01:30;;;;;;;14.07;13.07;;;21.60;36.30;;;;;;6090490;23;20171;-67
2021/08/27 06:03:55;;;;;;;12.77;11.87;;;21.60;36.50;;;;;;6091221;23;20894;-66
2021/08/27 06:06:21;;;;;;;13.93;12.83;;;21.60;36.60;;;;;;6091041;23;20160;-66
2021/08/27 06:08:46;;;;;;;10.83;9.83;;;21.60;36.40;;;;;;6090489;23;20182;-66
2021/08/27 06:11:12;;;;;;;11.23;10.27;;;21.60;36.20;;;;;;6091125;23;20546;-68
2021/08/27 06:13:37;;;;;;;9.47;8.77;;;21.50;36.00;;;;;;6090998;23;20236;-68
2021/08/27 06:16:03;;;;;;;9.23;8.53;;;21.50;35.80;;;;;;6090646;23;20158;-67
2021/08/27 06:18:29;;;;;;;7.27;6.77;;;21.50;35.40;;;;;;6089950;23;20238;-67
2021/08/27 06:21:24;;;;;;;8.37;7.57;;;21.50;35.30;;;;;;6090843;23;20404;-66
2021/08/27 06:23:52;;;;;;;6.70;6.07;;;21.50;35.40;;;;;;6089735;23;20462;-67
2021/08/27 06:26:18;;;;;;;5.80;5.30;;;21.50;35.50;;;;;;6090898;23;20408;-69
2021/08/27 06:28:43;;;;;;;6.03;5.30;;;21.50;35.30;;;;;;6090521;23;20463;-69
2021/08/27 06:31:09;;;;;;;5.30;4.93;;;21.50;34.90;;;;;;6090578;23;20382;-69
2021/08/27 06:33:35;;;;;;;5.20;4.67;;;21.50;34.80;;;;;;6090752;23;20211;-70
2021/08/27 06:36:01;;;;;;;4.93;4.53;;;21.50;34.80;;;;;;6090808;23;20489;-71
2021/08/27 06:38:26;;;;;;;5.23;3.50;;;21.50;34.50;;;;;;6090344;23;20160;-70
2021/08/27 06:43:57;;;;;;;7.20;3.90;;;21.50;34.40;;;;;;6087761;23;20174;-72
2021/08/27 06:47:04;;;;;;;4.40;4.00;;;21.50;33.90;;;;;;6086986;23;20385;-72
2021/08/27 06:49:29;;;;;;;9.03;5.20;;;21.50;33.90;;;;;;6088825;23;20214;-70
2021/08/27 06:51:55;;;;;;;8.73;4.50;;;21.50;33.90;;;;;;6090367;23;20386;-70
2021/08/27 06:54:20;;;;;;;4.50;4.10;;;21.50;33.90;;;;;;6090574;23;20187;-70
2021/08/27 06:56:46;;;;;;;5.60;4.03;;;21.50;33.90;;;;;;6091877;23;20155;-70
2021/08/27 06:59:11;;;;;;;5.20;4.30;;;21.50;33.90;;;;;;6091286;23;20204;-67
2021/08/27 07:01:37;;;;;;;8.03;4.97;;;21.50;34.20;;;;;;6090544;23;20163;-72
2021/08/27 07:04:02;;;;;;;4.43;4.00;;;21.50;34.30;;;;;;6091025;23;20189;-66
2021/08/27 07:06:28;;;;;;;4.43;4.03;;;21.50;34.20;;;;;;6090994;23;20209;-67
2021/08/27 07:08:54;;;;;;;6.90;4.20;;;21.50;34.10;;;;;;6089703;23;20306;-68
2021/08/27 07:11:19;;;;;;;5.10;4.20;;;21.40;34.00;;;;;;6091920;23;20228;-67
2021/08/27 07:13:45;;;;;;;6.37;4.13;;;21.50;34.30;;;;;;6091786;23;20664;-67
2021/08/27 07:16:12;;;;;;;4.00;3.70;;;21.50;34.30;;;;;;6092023;23;20616;-67
2021/08/27 07:18:39;;;;;;;4.63;4.20;;;21.50;34.40;;;;;;6091463;23;20412;-66
2021/08/27 07:21:06;;;;;;;7.97;3.87;;;21.40;34.20;;;;;;6091792;23;20807;-65
2021/08/27 07:23:32;;;;;;;4.10;3.57;;;21.50;34.80;;;;;;6091854;23;20393;-66
2021/08/27 07:25:57;;;;;;;3.80;3.50;;;21.50;34.80;;;;;;6092062;23;20751;-67
2021/08/27 07:31:45;;;;;;;6.10;3.73;;;21.60;34.80;;;;;;6081635;23;20679;-65
2021/08/27 07:34:10;;;;;;;5.53;3.17;;;21.70;34.60;;;;;;6091110;23;20425;-66
2021/08/27 07:36:36;;;;;;;7.67;3.17;;;21.70;34.50;;;;;;6091789;23;20512;-65
2021/08/27 07:39:02;;;;;;;4.70;3.60;;;21.70;34.50;;;;;;6091486;23;20254;-65
2021/08/27 07:41:27;;;;;;;7.30;3.10;;;21.70;34.50;;;;;;6092082;23;20155;-66
2021/08/27 07:43:53;;;;;;;4.40;2.87;;;21.70;34.60;;;;;;6091647;23;20418;-66
2021/08/27 07:46:19;;;;;;;2.83;2.63;;;21.70;34.70;;;;;;6091885;23;20246;-66
2021/08/27 07:48:44;;;;;;;3.27;2.97;;;21.70;34.70;;;;;;6091587;23;20183;-65
2021/08/27 07:51:10;;;;;;;5.20;3.40;;;21.60;34.40;;;;;;6091554;23;20659;-66
2021/08/27 07:53:35;;;;;;;3.07;2.57;;;21.60;34.20;;;;;;6091926;23;20253;-66
2021/08/27 07:56:01;;;;;;;2.93;2.73;;;21.70;34.20;;;;;;6091958;23;20162;-65
2021/08/27 07:58:26;;;;;;;7.87;3.00;;;21.70;34.10;;;;;;6090258;23;20166;-66
2021/08/27 08:04:14;;;;;;;4.70;2.90;;;21.60;33.90;;;;;;6082243;23;20664;-67
2021/08/27 08:06:40;;;;;;;3.80;2.80;;;21.60;33.80;;;;;;6086834;23;20386;-66
2021/08/27 08:09:06;;;;;;;4.77;3.10;;;21.60;33.80;;;;;;6091141;23;20184;-65
2021/08/27 08:11:33;;;;;;;3.27;2.70;;;21.60;33.90;;;;;;6091541;23;20381;-66
2021/08/27 08:13:59;;;;;;;2.83;2.50;;;21.60;34.00;;;;;;6091291;23;20436;-66
2021/08/27 08:16:25;;;;;;;3.47;2.33;;;21.60;34.20;;;;;;6091778;23;20385;-67
2021/08/27 08:18:50;;;;;;;6.13;2.70;;;21.60;34.20;;;;;;6091156;23;20245;-66
2021/08/27 08:21:19;;;;;;;3.17;2.87;;;21.60;34.30;;;;;;6091350;23;20753;-66
2021/08/27 08:23:45;;;;;;;5.37;2.60;;;21.60;34.20;;;;;;6091827;23;20163;-67
2021/08/27 08:26:11;;;;;;;3.27;2.37;;;21.60;34.00;;;;;;6091549;23;20405;-66
2021/08/27 08:28:36;;;;;;;2.90;2.57;;;21.60;34.30;;;;;;6090752;23;20183;-67
2021/08/27 08:31:02;;;;;;;3.27;2.43;;;21.60;34.00;;;;;;6091921;23;20155;-66
2021/08/27 08:33:27;;;;;;;4.53;2.40;;;21.70;33.90;;;;;;6091261;23;20279;-65
2021/08/27 08:35:53;;;;;;;3.40;2.30;;;21.70;33.80;;;;;;6098901;23;20176;-66
2021/08/27 08:38:20;;;;;;;4.00;2.30;;;21.70;33.80;;;;;;6120561;23;20159;-67
2021/08/27 08:40:46;;;;;;;3.77;2.50;;;21.70;33.90;;;;;;6120716;23;20163;-64
2021/08/27 08:43:13;;;;;;;5.23;2.67;;;21.80;34.50;;;;;;6120555;23;20715;-64
2021/08/27 08:45:50;;;;;;;3.93;2.40;;;21.80;35.10;;;;;;6121106;23;20185;-64
2021/08/27 08:48:20;;;;;;;6.33;2.80;;;21.90;35.50;;;;;;6120734;23;20442;-65
2021/08/27 08:50:46;;;;;;;3.70;2.57;;;21.90;35.30;;;;;;6120529;23;20886;-65
2021/08/27 08:53:13;;;;;;;3.37;2.30;;;22.00;34.90;;;;;;6120477;23;20446;-65
2021/08/27 08:55:40;;;;;;;4.33;2.20;;;22.00;34.50;;;;;;6120865;23;20472;-65
2021/08/27 08:58:05;;;;;;;5.90;2.57;;;22.00;34.00;;;;;;6120168;23;20385;-65
2021/08/27 09:00:31;;;;;;;4.73;2.40;;;22.10;33.70;;;;;;6120479;23;20411;-65
2021/08/27 09:02:59;;;;;;;2.57;2.40;;;22.10;33.30;;;;;;6099884;23;20182;-68
2021/08/27 09:05:24;;;;;;;2.20;2.00;;;22.20;32.90;;;;;;6091265;23;20170;-67
2021/08/27 09:08:47;;;;;;;6.37;2.53;;;22.20;32.60;;;;;;6084699;23;20903;-65
2021/08/27 09:11:22;;;;;;;2.30;2.10;;;22.20;32.50;;;;;;5947185;24;20193;-65
2021/08/27 09:13:50;;;;;;;2.57;2.37;;;22.20;32.50;;;;;;5962712;23;20436;-68
2021/08/27 09:16:17;;;;;;;5.80;2.40;;;22.10;32.40;;;;;;6038067;23;20439;-64
2021/08/27 09:18:45;;;;;;;4.53;2.60;;;22.00;32.20;;;;;;6091272;23;20401;-68
2021/08/27 09:21:40;;;;;;;3.63;2.97;;;22.00;32.30;;;;;;6091345;23;20386;-66
2021/08/27 09:24:24;;;;;;;3.20;2.17;;;22.00;32.20;;;;;;6075357;23;20767;-63
2021/08/27 09:27:18;;;;;;;3.20;2.70;;;22.00;32.10;;;;;;6085488;23;20416;-64
2021/08/27 09:29:49;;;;;;;2.47;2.27;;;22.00;31.60;;;;;;6081460;23;20417;-64
2021/08/27 09:32:21;;;;;;;3.20;1.93;;;22.10;31.70;;;;;;6089477;23;20405;-63
2021/08/27 09:34:47;;;;;;;5.50;2.20;;;22.00;31.60;;;;;;6090253;23;20883;-65
2021/08/27 09:37:13;;;;;;;3.50;2.50;;;22.00;31.60;;;;;;6091263;23;20383;-66
2021/08/27 09:39:39;;;;;;;3.70;2.93;;;22.00;31.60;;;;;;6091052;23;20424;-65
2021/08/27 09:42:05;;;;;;;2.67;2.40;;;22.00;31.60;;;;;;6091004;23;20249;-68
2021/08/27 09:44:30;;;;;;;4.27;2.60;;;22.00;31.60;;;;;;6091329;23;20440;-68
2021/08/27 09:47:00;;;;;;;2.97;2.37;;;21.90;31.50;;;;;;6091400;23;20658;-65
2021/08/27 09:49:38;;;;;;;3.33;2.47;;;21.90;31.30;;;;;;6090395;23;20183;-67
2021/08/27 09:52:09;;;;;;;2.33;2.23;;;21.90;31.00;;;;;;6090974;23;20389;-69
2021/08/27 09:54:41;;;;;;;2.60;1.90;;;21.90;31.10;;;;;;6091410;23;20463;-67
2021/08/27 09:57:10;;;;;;;2.70;2.47;;;21.90;31.30;;;;;;6091007;23;20393;-66
2021/08/27 09:59:50;;;;;;;2.60;2.40;;;22.00;31.20;;;;;;6090324;23;20418;-63
2021/08/27 10:02:25;;;;;;;4.10;2.70;;;21.90;31.10;;;;;;6090865;23;20425;-67
2021/08/27 10:04:54;;;;;;;2.97;2.47;;;22.00;31.20;;;;;;6081000;23;20415;-68
2021/08/27 10:07:37;;;;;;;2.43;2.30;;;21.90;31.10;;;;;;6120260;23;20401;-70
2021/08/27 10:10:13;;;;;;;2.60;2.40;;;21.90;30.90;;;;;;6119933;23;20417;-68
2021/08/27 10:12:40;;;;;;;3.70;2.40;;;21.90;31.10;;;;;;6119845;23;20432;-67
2021/08/27 10:15:08;;;;;;;2.10;2.00;;;21.90;31.30;;;;;;6120093;23;20393;-66
2021/08/27 10:17:36;;;;;;;2.77;2.37;;;21.90;31.50;;;;;;6120304;23;20397;-67
2021/08/27 10:23:24;;;;;;;2.40;2.30;;;21.90;31.00;;;;;;6080240;23;20365;-67
2021/08/27 10:25:52;;;;;;;4.20;2.60;;;21.90;31.60;;;;;;6090165;23;20393;-68
2021/08/27 10:28:18;;;;;;;4.40;2.93;;;21.90;31.50;;;;;;6090796;23;20386;-67
2021/08/27 10:30:55;;;;;;;4.10;3.70;;;21.90;31.50;;;;;;6091422;23;20393;-67
2021/08/27 10:33:39;;;;;;;2.83;2.60;;;21.90;31.60;;;;;;6092017;23;20455;-67
2021/08/27 10:36:09;;;;;;;2.77;2.57;;;21.90;31.50;;;;;;6092155;23;20386;-68
2021/08/27 10:38:41;;;;;;;2.70;2.50;;;21.90;31.10;;;;;;6091664;23;20406;-68
2021/08/27 10:41:15;;;;;;;3.97;3.57;;;21.90;31.00;;;;;;6091192;23;20417;-68
2021/08/27 10:43:58;;;;;;;2.40;2.20;;;21.90;30.90;;;;;;6088706;23;20405;-68
2021/08/27 10:46:44;;;;;;;2.53;2.43;;;21.90;30.60;;;;;;6091588;23;20401;-68
2021/08/27 10:49:16;;;;;;;7.80;2.60;;;21.90;30.70;;;;;;6091050;23;20459;-67
2021/08/27 10:55:12;;;;;;;3.47;2.47;;;21.90;30.70;;;;;;6086244;23;20417;-68
2021/08/27 10:58:02;;;;;;;8.47;3.10;;;22.00;30.80;;;;;;6091862;23;20741;-67
2021/08/27 11:00:49;;;;;;;2.70;2.50;;;22.00;30.70;;;;;;6092024;23;20413;-66
2021/08/27 11:03:15;;;;;;;2.73;2.53;;;22.00;30.50;;;;;;6091650;23;20420;-67
2021/08/27 11:05:48;;;;;;;2.60;2.40;;;22.10;30.50;;;;;;6092026;23;20767;-67
2021/08/27 11:08:51;;;;;;;2.87;2.10;;;22.10;30.40;;;;;;6084051;23;20767;-67
2021/08/27 11:11:17;;;;;;;2.60;2.40;;;22.10;30.30;;;;;;6083586;23;21060;-68
2021/08/27 11:13:42;;;;;;;4.23;2.57;;;22.00;30.50;;;;;;6089159;23;20445;-68
2021/08/27 11:16:23;;;;;;;4.23;2.20;;;22.00;30.40;;;;;;6091577;23;20155;-68
2021/08/27 11:18:50;;;;;;;2.30;2.10;;;22.00;30.30;;;;;;6091285;23;20821;-68
2021/08/27 11:21:35;;;;;;;2.23;2.13;;;22.00;30.30;;;;;;6092050;23;20735;-68
2021/08/27 11:24:18;;;;;;;2.83;2.43;;;22.00;30.10;;;;;;6091553;23;20399;-67
2021/08/27 11:26:56;;;;;;;2.00;1.90;;;22.00;30.10;;;;;;6091637;23;20386;-67
2021/08/27 11:29:27;;;;;;;4.20;2.70;;;22.00;30.10;;;;;;6091717;23;20420;-67
2021/08/27 11:31:54;;;;;;;2.87;2.60;;;21.90;30.10;;;;;;6091968;23;20404;-68
2021/08/27 11:34:46;;;;;;;5.43;2.27;;;21.90;30.00;;;;;;6091873;23;20437;-67
2021/08/27 11:37:11;;;;;;;2.27;2.10;;;21.90;30.00;;;;;;6091880;23;20402;-68
2021/08/27 11:39:37;;;;;;;2.47;2.27;;;22.00;30.20;;;;;;6091556;23;20828;-68
2021/08/27 11:42:04;;;;;;;2.60;2.13;;;22.00;30.30;;;;;;6091186;23;20178;-68
2021/08/27 11:44:30;;;;;;;2.50;2.30;;;22.00;30.40;;;;;;6092090;23;20397;-68
2021/08/27 11:47:02;;;;;;;2.93;2.43;;;22.00;30.40;;;;;;6092216;23;20465;-68
2021/08/27 11:49:34;;;;;;;2.97;2.77;;;22.00;30.50;;;;;;6067495;23;20175;-67
2021/08/27 11:52:13;;;;;;;2.63;2.43;;;22.00;30.40;;;;;;6091908;23;20390;-67
2021/08/27 11:54:39;;;;;;;3.00;2.10;;;22.00;30.60;;;;;;6111730;23;20395;-67
2021/08/27 11:57:14;;;;;;;3.10;2.30;;;22.00;30.70;;;;;;6120945;23;20380;-67
2021/08/27 11:59:40;;;;;;;2.63;2.43;;;22.00;30.80;;;;;;6120788;23;20389;-68
2021/08/27 12:02:20;;;;;;;2.70;2.60;;;22.00;30.70;;;;;;6120631;23;20804;-68
2021/08/27 12:05:00;;;;;;;2.50;2.30;;;22.00;30.40;;;;;;6120880;23;20721;-68
2021/08/27 12:07:29;;;;;;;3.33;2.63;;;22.00;30.30;;;;;;6121159;23;20385;-67
2021/08/27 12:10:12;;;;;;;2.73;2.53;;;22.00;30.10;;;;;;6120504;23;20405;-67
2021/08/27 12:12:41;;;;;;;3.10;2.50;;;22.00;30.10;;;;;;6120789;23;20798;-68
2021/08/27 12:21:32;;;;;;;2.47;2.27;;;22.00;30.30;;;;;;6087425;23;20365;-68
2021/08/27 12:23:59;;;;;;;3.03;2.57;;;22.00;30.20;;;;;;6091624;23;20394;-68
2021/08/27 12:26:28;;;;;;;2.03;1.90;;;22.00;30.20;;;;;;6091738;23;20557;-68
2021/08/27 12:28:54;;;;;;;2.80;2.53;;;22.00;30.40;;;;;;6091650;23;20409;-68
2021/08/27 12:31:19;;;;;;;2.30;2.20;;;22.00;30.30;;;;;;6091859;23;20454;-67
2021/08/27 12:33:45;;;;;;;3.00;2.03;;;22.00;30.10;;;;;;6091002;23;20184;-67
2021/08/27 12:36:12;;;;;;;2.50;2.30;;;22.10;30.00;;;;;;6091763;23;20229;-67
2021/08/27 12:38:50;;;;;;;2.80;2.50;;;22.10;29.90;;;;;;6083262;23;20213;-67
2021/08/27 12:41:19;;;;;;;2.20;2.00;;;22.10;29.90;;;;;;6088205;23;20897;-67
2021/08/27 12:43:45;;;;;;;2.47;2.30;;;22.10;29.80;;;;;;6091840;23;20396;-67
2021/08/27 12:46:31;;;;;;;3.17;2.63;;;22.10;29.80;;;;;;6091746;23;20433;-67
2021/08/27 12:49:23;;;;;;;2.83;2.37;;;22.10;29.70;;;;;;6091431;23;20911;-67
2021/08/27 12:51:49;;;;;;;2.93;2.50;;;22.10;29.80;;;;;;6091868;23;20393;-68
2021/08/27 12:57:48;;;;;;;2.37;2.17;;;22.10;29.60;;;;;;6091936;23;20369;-67
2021/08/27 13:00:22;;;;;;;5.13;2.70;;;22.10;29.50;;;;;;6091505;23;20401;-67
2021/08/27 13:02:48;;;;;;;2.33;2.03;;;22.10;29.50;;;;;;6091046;23;20417;-67
2021/08/27 13:05:14;;;;;;;2.90;2.50;;;22.10;29.40;;;;;;6091805;23;20386;-68
2021/08/27 13:07:40;;;;;;;2.33;2.10;;;22.10;29.40;;;;;;6091579;23;20440;-67
2021/08/27 13:10:17;;;;;;;2.13;2.03;;;22.10;29.40;;;;;;6091230;23;20679;-67
2021/08/27 13:12:44;;;;;;;3.27;2.40;;;22.10;29.40;;;;;;6091637;23;20187;-68
2021/08/27 13:15:23;;;;;;;2.40;2.30;;;22.10;29.50;;;;;;6091604;23;20410;-68
2021/08/27 13:21:13;;;;;;;2.30;2.10;;;22.10;29.70;;;;;;6091809;23;20365;-67
2021/08/27 13:23:40;;;;;;;3.53;2.60;;;22.10;29.70;;;;;;6091202;23;20419;-67
2021/08/27 13:26:08;;;;;;;2.53;2.33;;;22.10;29.70;;;;;;6091454;23;20389;-68
2021/08/27 13:28:35;;;;;;;4.90;3.03;;;22.00;30.30;;;;;;6091213;23;20482;-67
2021/08/27 13:31:01;;;;;;;8.57;2.70;;;22.10;29.80;;;;;;6091288;23;20378;-67
2021/08/27 13:33:27;;;;;;;3.00;2.33;;;22.00;29.80;;;;;;6091470;23;20436;-67
2021/08/27 13:35:52;;;;;;;3.10;2.00;;;22.00;29.90;;;;;;6091359;23;20817;-67
2021/08/27 13:38:18;;;;;;;4.40;2.87;;;22.10;30.00;;;;;;6090950;23;20233;-67
2021/08/27 13:40:44;;;;;;;3.83;2.40;;;22.00;29.90;;;;;;6089540;23;20160;-67
2021/08/27 13:43:09;;;;;;;4.63;2.90;;;22.10;29.90;;;;;;6087646;23;20173;-64
2021/08/27 13:48:57;;;;;;;5.00;3.00;;;22.10;29.90;;;;;;6090014;23;20669;-68
2021/08/27 13:51:22;;;;;;;7.60;2.63;;;22.10;29.90;;;;;;6091243;23;20390;-70
2021/08/27 13:53:48;;;;;;;9.40;3.27;;;22.10;30.00;;;;;;6090835;23;20269;-66
2021/08/27 13:56:13;;;;;;;5.23;3.20;;;22.00;29.90;;;;;;6090146;23;20209;-66
2021/08/27 13:58:39;;;;;;;10.43;3.93;;;22.10;30.00;;;;;;6088605;23;20223;-67
2021/08/27 14:01:04;;;;;;;9.17;3.83;;;22.00;30.00;;;;;;6089896;23;20624;-65